Time,TemperatureF,DewpointF,PressureIn,WindDirection,WindDirectionDegrees,WindSpeedMPH,WindSpeedGustMPH,Humidity,HourlyPrecipIn,Conditions,Clouds,dailyrainin,SoftwareType,DateUTC
2014-04-20 00:03:00,77.3,40.0,30.04,SW,214,0.0,3.0,26,0.00,,,0.00,weatherlink.com 1.10,2014-04-20 07:03:00,
2014-04-20 00:18:00,75.1,41.0,30.04,SW,236,0.0,0.0,29,0.00,,,0.00,weatherlink.com 1.10,2014-04-20 07:18:00,
2014-04-20 00:33:00,74.1,41.0,30.04,SW,236,1.0,3.0,30,0.00,,,0.00,weatherlink.com 1.10,2014-04-20 07:33:00,
2014-04-20 00:48:00,72.7,40.0,30.05,SW,236,1.0,3.0,31,0.00,,,0.00,weatherlink.com 1.10,2014-04-20 07:48:00,
2014-04-20 01:03:00,71.5,41.0,30.05,SW,236,0.0,2.0,33,0.00,,,0.00,weatherlink.com 1.10,2014-04-20 08:03:00,
2014-04-20 01:18:00,70.4,40.0,30.05,SW,236,0.0,2.0,33,0.00,,,0.00,weatherlink.com 1.10,2014-04-20 08:18:00,
2014-04-20 01:33:00,70.0,37.0,30.05,SW,236,0.0,1.0,30,0.00,,,0.00,weatherlink.com 1.10,2014-04-20 08:33:00,
2014-04-20 01:48:00,69.6,38.0,30.05,SW,236,0.0,0.0,32,0.00,,,0.00,weatherlink.com 1.10,2014-04-20 08:48:00,
2014-04-20 02:03:00,68.4,38.0,30.06,SW,236,0.0,0.0,33,0.00,,,0.00,weatherlink.com 1.10,2014-04-20 09:03:00,
2014-04-20 02:18:00,68.0,39.0,30.06,SW,236,0.0,0.0,35,0.00,,,0.00,weatherlink.com 1.10,2014-04-20 09:18:00,
2014-04-20 02:33:00,67.4,39.0,30.06,SW,236,0.0,1.0,36,0.00,,,0.00,weatherlink.com 1.10,2014-04-20 09:33:00,
2014-04-20 02:48:00,67.0,38.0,30.06,SW,236,0.0,1.0,35,0.00,,,0.00,weatherlink.com 1.10,2014-04-20 09:48:00,
2014-04-20 03:03:00,66.7,37.0,30.06,SW,236,0.0,1.0,34,0.00,,,0.00,weatherlink.com 1.10,2014-04-20 10:03:00,
2014-04-20 03:19:00,66.5,37.0,30.06,SW,236,0.0,1.0,34,0.00,,,0.00,weatherlink.com 1.10,2014-04-20 10:19:00,
2014-04-20 03:34:00,65.6,38.0,30.06,SW,236,0.0,0.0,37,0.00,,,0.00,weatherlink.com 1.10,2014-04-20 10:34:00,
2014-04-20 03:49:00,65.5,38.0,30.06,SW,236,0.0,0.0,37,0.00,,,0.00,weatherlink.com 1.10,2014-04-20 10:49:00,
2014-04-20 04:04:00,65.1,39.0,30.07,SW,236,0.0,0.0,38,0.00,,,0.00,weatherlink.com 1.10,2014-04-20 11:04:00,
2014-04-20 04:19:00,65.3,39.0,30.07,SW,236,0.0,1.0,38,0.00,,,0.00,weatherlink.com 1.10,2014-04-20 11:19:00,
2014-04-20 04:34:00,65.4,39.0,30.07,SW,236,0.0,2.0,38,0.00,,,0.00,weatherlink.com 1.10,2014-04-20 11:34:00,
2014-04-20 04:49:00,64.5,39.0,30.08,SW,236,0.0,0.0,39,0.00,,,0.00,weatherlink.com 1.10,2014-04-20 11:49:00,
2014-04-20 05:04:00,63.8,40.0,30.08,SW,236,0.0,1.0,42,0.00,,,0.00,weatherlink.com 1.10,2014-04-20 12:04:00,
2014-04-20 05:19:00,64.3,39.0,30.08,SW,236,0.0,1.0,40,0.00,,,0.00,weatherlink.com 1.10,2014-04-20 12:19:00,
2014-04-20 05:34:00,64.3,40.0,30.09,SW,236,0.0,2.0,41,0.00,,,0.00,weatherlink.com 1.10,2014-04-20 12:34:00,
2014-04-20 05:49:00,64.8,40.0,30.09,SW,236,0.0,2.0,40,0.00,,,0.00,weatherlink.com 1.10,2014-04-20 12:49:00,
2014-04-20 06:04:00,64.8,40.0,30.10,SW,236,0.0,1.0,41,0.00,,,0.00,weatherlink.com 1.10,2014-04-20 13:04:00,
2014-04-20 06:19:00,64.9,40.0,30.10,SW,236,0.0,1.0,41,0.00,,,0.00,weatherlink.com 1.10,2014-04-20 13:19:00,
2014-04-20 06:34:00,66.0,41.0,30.11,SW,236,2.0,4.0,40,0.00,,,0.00,weatherlink.com 1.10,2014-04-20 13:34:00,
2014-04-20 06:49:00,67.2,42.0,30.11,WSW,238,3.0,6.0,40,0.00,,,0.00,weatherlink.com 1.10,2014-04-20 13:49:00,
2014-04-20 07:04:00,68.2,41.0,30.12,WSW,242,1.0,6.0,38,0.00,,,0.00,weatherlink.com 1.10,2014-04-20 14:04:00,
2014-04-20 07:19:00,69.8,42.0,30.13,WSW,246,0.0,6.0,37,0.00,,,0.00,weatherlink.com 1.10,2014-04-20 14:19:00,
2014-04-20 07:34:00,71.4,42.0,30.13,WSW,243,0.0,4.0,35,0.00,,,0.00,weatherlink.com 1.10,2014-04-20 14:34:00,
2014-04-20 07:49:00,73.0,42.0,30.14,WSW,243,0.0,3.0,33,0.00,,,0.00,weatherlink.com 1.10,2014-04-20 14:49:00,
2014-04-20 08:04:00,74.7,43.0,30.14,WSW,243,0.0,2.0,32,0.00,,,0.00,weatherlink.com 1.10,2014-04-20 15:04:00,
2014-04-20 08:19:00,75.2,42.0,30.14,WSW,245,0.0,1.0,31,0.00,,,0.00,weatherlink.com 1.10,2014-04-20 15:19:00,
2014-04-20 08:34:00,75.6,43.0,30.14,WSW,245,0.0,1.0,31,0.00,,,0.00,weatherlink.com 1.10,2014-04-20 15:34:00,
2014-04-20 08:49:00,76.6,43.0,30.14,WSW,245,0.0,1.0,30,0.00,,,0.00,weatherlink.com 1.10,2014-04-20 15:49:00,
2014-04-20 09:04:00,77.2,43.0,30.14,WSW,245,0.0,1.0,29,0.00,,,0.00,weatherlink.com 1.10,2014-04-20 16:04:00,
2014-04-20 09:19:00,78.2,42.0,30.14,WSW,245,0.0,3.0,28,0.00,,,0.00,weatherlink.com 1.10,2014-04-20 16:19:00,
2014-04-20 09:34:00,78.8,42.0,30.14,WSW,245,0.0,3.0,27,0.00,,,0.00,weatherlink.com 1.10,2014-04-20 16:34:00,
2014-04-20 09:49:00,80.1,42.0,30.14,SW,223,3.0,4.0,26,0.00,,,0.00,weatherlink.com 1.10,2014-04-20 16:49:00,
2014-04-20 10:04:00,80.9,43.0,30.15,SW,223,1.0,3.0,26,0.00,,,0.00,weatherlink.com 1.10,2014-04-20 17:04:00,
2014-04-20 10:19:00,81.9,43.0,30.15,SW,219,1.0,3.0,25,0.00,,,0.00,weatherlink.com 1.10,2014-04-20 17:19:00,
2014-04-20 10:34:00,83.5,42.0,30.14,SW,218,1.0,3.0,23,0.00,,,0.00,weatherlink.com 1.10,2014-04-20 17:34:00,
2014-04-20 10:50:00,84.4,43.0,30.14,WNW,286,1.0,4.0,23,0.00,,,0.00,weatherlink.com 1.10,2014-04-20 17:50:00,
2014-04-20 11:05:00,85.4,42.0,30.13,WNW,286,0.0,4.0,22,0.00,,,0.00,weatherlink.com 1.10,2014-04-20 18:05:00,
2014-04-20 11:20:00,85.0,42.0,30.13,WNW,288,0.0,3.0,22,0.00,,,0.00,weatherlink.com 1.10,2014-04-20 18:20:00,
2014-04-20 11:35:00,86.6,42.0,30.12,NW,318,0.0,5.0,21,0.00,,,0.00,weatherlink.com 1.10,2014-04-20 18:35:00,
2014-04-20 11:50:00,87.2,42.0,30.12,North,355,0.0,4.0,20,0.00,,,0.00,weatherlink.com 1.10,2014-04-20 18:50:00,
2014-04-20 12:05:00,88.5,43.0,30.11,NNE,22,2.0,4.0,20,0.00,,,0.00,weatherlink.com 1.10,2014-04-20 19:05:00,
2014-04-20 12:20:00,88.2,41.0,30.11,ENE,60,1.0,5.0,19,0.00,,,0.00,weatherlink.com 1.10,2014-04-20 19:20:00,
2014-04-20 12:35:00,88.8,42.0,30.10,East,90,3.0,8.0,19,0.00,,,0.00,weatherlink.com 1.10,2014-04-20 19:35:00,
2014-04-20 12:50:00,89.1,40.0,30.09,East,98,1.0,5.0,18,0.00,,,0.00,weatherlink.com 1.10,2014-04-20 19:50:00,
2014-04-20 13:05:00,90.7,42.0,30.08,East,99,1.0,5.0,18,0.00,,,0.00,weatherlink.com 1.10,2014-04-20 20:05:00,
2014-04-20 13:20:00,90.5,40.0,30.08,East,98,3.0,7.0,17,0.00,,,0.00,weatherlink.com 1.10,2014-04-20 20:20:00,
2014-04-20 13:35:00,90.9,40.0,30.08,SE,129,3.0,4.0,17,0.00,,,0.00,weatherlink.com 1.10,2014-04-20 20:35:00,
2014-04-20 13:50:00,91.6,41.0,30.07,SE,129,4.0,7.0,17,0.00,,,0.00,weatherlink.com 1.10,2014-04-20 20:50:00,
2014-04-20 14:05:00,92.1,40.0,30.06,ENE,77,2.0,7.0,16,0.00,,,0.00,weatherlink.com 1.10,2014-04-20 21:05:00,
2014-04-20 14:20:00,92.1,40.0,30.05,ESE,107,3.0,9.0,16,0.00,,,0.00,weatherlink.com 1.10,2014-04-20 21:20:00,
2014-04-20 14:35:00,93.2,39.0,30.05,ESE,115,0.0,5.0,15,0.00,,,0.00,weatherlink.com 1.10,2014-04-20 21:35:00,
2014-04-20 14:50:00,93.3,39.0,30.05,ESE,108,0.0,9.0,15,0.00,,,0.00,weatherlink.com 1.10,2014-04-20 21:50:00,
2014-04-20 15:05:00,91.0,39.0,30.04,East,86,2.0,7.0,16,0.00,,,0.00,weatherlink.com 1.10,2014-04-20 22:05:00,
2014-04-20 15:20:00,91.9,38.0,30.03,East,86,1.0,7.0,15,0.00,,,0.00,weatherlink.com 1.10,2014-04-20 22:20:00,
2014-04-20 15:35:00,93.2,39.0,30.03,ESE,104,5.0,7.0,15,0.00,,,0.00,weatherlink.com 1.10,2014-04-20 22:35:00,
2014-04-20 15:50:00,93.7,40.0,30.02,SSE,161,2.0,5.0,15,0.00,,,0.00,weatherlink.com 1.10,2014-04-20 22:50:00,
2014-04-20 16:05:00,92.4,38.0,30.02,East,94,0.0,9.0,15,0.00,,,0.00,weatherlink.com 1.10,2014-04-20 23:05:00,
2014-04-20 16:20:00,91.4,38.0,30.02,South,181,2.0,7.0,15,0.00,,,0.00,weatherlink.com 1.10,2014-04-20 23:20:00,
2014-04-20 16:35:00,90.8,39.0,30.02,SW,217,1.0,10.0,16,0.00,,,0.00,weatherlink.com 1.10,2014-04-20 23:35:00,
2014-04-20 16:50:00,92.1,40.0,30.01,SSW,206,1.0,7.0,16,0.00,,,0.00,weatherlink.com 1.10,2014-04-20 23:50:00,
2014-04-20 17:05:00,92.5,39.0,30.01,SSW,210,3.0,7.0,15,0.00,,,0.00,weatherlink.com 1.10,2014-04-21 00:05:00,
2014-04-20 17:20:00,92.5,39.0,30.01,SSW,196,0.0,5.0,15,0.00,,,0.00,weatherlink.com 1.10,2014-04-21 00:20:00,
2014-04-20 17:35:00,92.7,39.0,30.01,South,174,1.0,5.0,15,0.00,,,0.00,weatherlink.com 1.10,2014-04-21 00:35:00,
2014-04-20 17:50:00,91.3,39.0,30.00,SE,141,0.0,6.0,16,0.00,,,0.00,weatherlink.com 1.10,2014-04-21 00:50:00,
2014-04-20 18:05:00,90.5,39.0,30.00,SSE,150,0.0,5.0,16,0.00,,,0.00,weatherlink.com 1.10,2014-04-21 01:05:00,
2014-04-20 18:20:00,89.7,38.0,30.00,SSW,194,1.0,7.0,16,0.00,,,0.00,weatherlink.com 1.10,2014-04-21 01:20:00,
2014-04-20 18:35:00,89.2,37.0,30.00,SSE,155,2.0,6.0,16,0.00,,,0.00,weatherlink.com 1.10,2014-04-21 01:35:00,
2014-04-20 18:50:00,88.8,37.0,30.00,South,175,0.0,3.0,16,0.00,,,0.00,weatherlink.com 1.10,2014-04-21 01:50:00,
2014-04-20 19:05:00,88.1,38.0,30.00,ESE,113,2.0,9.0,17,0.00,,,0.00,weatherlink.com 1.10,2014-04-21 02:05:00,
2014-04-20 19:20:00,87.8,36.0,30.00,SSW,209,0.0,8.0,16,0.00,,,0.00,weatherlink.com 1.10,2014-04-21 02:20:00,
2014-04-20 19:35:00,87.6,38.0,30.01,WSW,242,2.0,8.0,17,0.00,,,0.00,weatherlink.com 1.10,2014-04-21 02:35:00,
2014-04-20 19:50:00,86.7,37.0,30.01,SSW,201,0.0,5.0,17,0.00,,,0.00,weatherlink.com 1.10,2014-04-21 02:50:00,
2014-04-20 20:05:00,86.1,36.0,30.02,SW,232,0.0,3.0,17,0.00,,,0.00,weatherlink.com 1.10,2014-04-21 03:05:00,
2014-04-20 20:20:00,85.1,36.0,30.03,SW,232,0.0,1.0,17,0.00,,,0.00,weatherlink.com 1.10,2014-04-21 03:20:00,
2014-04-20 20:35:00,84.3,35.0,30.04,SW,232,0.0,2.0,17,0.00,,,0.00,weatherlink.com 1.10,2014-04-21 03:35:00,
2014-04-20 20:50:00,83.4,36.0,30.04,SW,232,0.0,1.0,18,0.00,,,0.00,weatherlink.com 1.10,2014-04-21 03:50:00,
2014-04-20 21:05:00,82.7,35.0,30.04,SW,232,0.0,2.0,18,0.00,,,0.00,weatherlink.com 1.10,2014-04-21 04:05:00,
2014-04-20 21:20:00,82.1,36.0,30.05,SW,232,0.0,1.0,19,0.00,,,0.00,weatherlink.com 1.10,2014-04-21 04:20:00,
2014-04-20 21:35:00,81.4,34.0,30.06,SW,232,1.0,3.0,18,0.00,,,0.00,weatherlink.com 1.10,2014-04-21 04:35:00,
2014-04-20 21:50:00,81.7,34.0,30.06,WSW,237,0.0,3.0,18,0.00,,,0.00,weatherlink.com 1.10,2014-04-21 04:50:00,
2014-04-20 22:05:00,82.1,35.0,30.06,WSW,254,2.0,6.0,18,0.00,,,0.00,weatherlink.com 1.10,2014-04-21 05:05:00,